CZFM

Fort McPherson Airport

Fort Mcpherson, Northwest Territories, Canada
METAR CZFM 182300Z VRB02KT 35SM FEW030 03/M06 A3036 RMK CU1 LAST OBS/NXT 191300Z SLP285
Observed Flight Rules
Sep-18 @ 23:00 UTC (13 hours ago) Visual Flight Rules
Wind Visibility Clouds
Variable at 2 knots 35 miles
  • Few at 3,000' AGL
Temperatures Readings
Current 3°C / 37°F
Dewpoint -6°C / 21°F
Humidity 52%
Altimeter 30.36" Hg
Pressure 1028.5 hPa
Elevation 43
METAR CZFM 182300Z VRB02KT 35SM FEW030 03/M06 A3036 RMK CU1 LAST OBS/NXT 191300Z SLP285
Observed Flight Rules
Sep-18 @ 23:00 UTC
(13 hours ago)
VFR
Wind Visibility
Variable at 2 knots 35 miles
Clouds
  • Few at 3,000' AGL
Temperature Dewpoint
3°C / 37°F -6°C / 21°F
Humidity Altimeter Pressure
52% 30.36" Hg 1028.5 hPa